Terminal Aerodrome Forecast
Issued by NWS

Current Version | Previous Version | Text Only | Print | Product List | Glossary On
Versions: 1 2 3 4 5 6 7 8 9 10 11 12
000
FTUS45 KPSR 301120
TAFIPL
TAF
KIPL 301120Z 3012/3112 12007KT P6SM FEW250
     FM310500 VRB05KT P6SM SKC
     FM311100 15008KT P6SM SKC=

USA.gov is the U.S. government's official web portal to all federal, state and local government web resources and services.